createdAt,value
2019-01-09T00:01:12.041Z,2.00
2019-01-09T00:03:41.451Z,2.00
2019-01-09T00:06:10.727Z,1.90
2019-01-09T00:08:40.116Z,1.90
2019-01-09T00:11:09.558Z,1.90
2019-01-09T00:13:38.954Z,1.80
2019-01-09T00:16:08.626Z,1.80
2019-01-09T00:18:37.742Z,1.80
2019-01-09T00:21:07.235Z,1.80
2019-01-09T00:23:36.618Z,1.80
2019-01-09T00:26:06.032Z,1.80
2019-01-09T00:28:35.414Z,1.80
2019-01-09T00:31:04.843Z,1.90
2019-01-09T00:33:33.966Z,1.90
2019-01-09T00:36:03.123Z,1.90
2019-01-09T00:38:32.246Z,1.90
2019-01-09T00:41:01.390Z,1.90
2019-01-09T00:43:31.060Z,1.90
2019-01-09T00:46:00.778Z,1.90
2019-01-09T00:48:30.438Z,1.90
2019-01-09T00:51:00.119Z,2.00
2019-01-09T00:53:29.238Z,1.90
2019-01-09T00:55:58.655Z,1.90
2019-01-09T00:58:28.040Z,1.90
2019-01-09T01:00:57.728Z,1.90
2019-01-09T01:04:02.410Z,1.90
2019-01-09T01:07:08.306Z,1.90
2019-01-09T01:10:13.079Z,1.90
2019-01-09T01:13:06.851Z,1.80
2019-01-09T01:16:20.539Z,1.70
2019-01-09T01:19:25.375Z,1.70
2019-01-09T01:22:16.089Z,1.60
2019-01-09T01:25:14.582Z,1.60
2019-01-09T01:28:11.778Z,1.60
2019-01-09T01:31:34.315Z,1.60
2019-01-09T01:34:44.959Z,1.60
2019-01-09T01:37:36.683Z,1.60
2019-01-09T01:40:28.739Z,1.60
2019-01-09T01:43:24.803Z,1.60
2019-01-09T01:46:33.759Z,1.50
2019-01-09T01:49:35.277Z,1.40
2019-01-09T01:52:41.167Z,1.40
2019-01-09T01:55:33.691Z,1.30
2019-01-09T01:58:33.396Z,1.30
2019-01-09T02:01:32.858Z,1.20
2019-01-09T02:04:27.913Z,1.20
2019-01-09T02:07:53.258Z,1.20
2019-01-09T02:10:56.299Z,1.10
2019-01-09T02:13:57.999Z,1.10
2019-01-09T02:16:49.538Z,1.20
2019-01-09T02:19:24.020Z,1.20
2019-01-09T02:22:27.843Z,1.20
2019-01-09T02:25:23.591Z,1.20
2019-01-09T02:28:21.627Z,1.20
2019-01-09T02:31:05.468Z,1.20
2019-01-09T02:33:34.822Z,1.30
2019-01-09T02:36:13.088Z,1.30
2019-01-09T02:38:35.314Z,1.30
2019-01-09T02:41:04.795Z,1.20
2019-01-09T02:43:34.540Z,1.20
2019-01-09T02:46:03.671Z,1.20
2019-01-09T02:48:33.055Z,1.20
2019-01-09T02:51:02.192Z,1.20
2019-01-09T02:53:31.824Z,1.20
2019-01-09T02:56:01.116Z,1.20
2019-01-09T02:58:30.399Z,1.20
2019-01-09T03:00:59.881Z,1.20
2019-01-09T03:03:29.251Z,1.20
2019-01-09T03:05:58.728Z,1.30
2019-01-09T03:08:27.830Z,1.30
2019-01-09T03:10:57.479Z,1.30
2019-01-09T03:13:27.205Z,1.30
2019-01-09T03:15:56.672Z,1.30
2019-01-09T03:18:26.038Z,1.30
2019-01-09T03:20:55.440Z,1.30
2019-01-09T03:23:25.063Z,1.40
2019-01-09T03:25:54.630Z,1.30
2019-01-09T03:28:23.744Z,1.30
2019-01-09T03:30:53.248Z,1.30
2019-01-09T03:33:22.350Z,1.30
2019-01-09T03:35:51.690Z,1.20
2019-01-09T03:38:21.161Z,1.20
2019-01-09T03:40:50.851Z,1.10
2019-01-09T03:43:20.225Z,1.10
2019-01-09T03:45:49.354Z,1.10
2019-01-09T03:48:18.463Z,1.10
2019-01-09T03:50:47.600Z,1.00
2019-01-09T03:53:17.301Z,1.00
2019-01-09T03:55:46.739Z,0.90
2019-01-09T03:58:16.139Z,0.80
2019-01-09T04:00:45.593Z,0.80
2019-01-09T04:03:15.678Z,0.70
2019-01-09T04:05:45.570Z,0.70
2019-01-09T04:08:14.715Z,0.70
2019-01-09T04:10:43.911Z,0.70
2019-01-09T04:13:13.589Z,0.70
2019-01-09T04:15:42.868Z,0.70
2019-01-09T04:18:12.295Z,0.80
2019-01-09T04:20:41.728Z,0.80
2019-01-09T04:23:11.140Z,0.70
2019-01-09T04:25:40.491Z,0.70
2019-01-09T04:28:10.183Z,0.80
2019-01-09T04:30:39.646Z,0.80
2019-01-09T04:33:09.304Z,0.80
2019-01-09T04:35:38.411Z,0.80
2019-01-09T04:38:07.809Z,0.80
2019-01-09T04:40:36.914Z,0.80
2019-01-09T04:43:06.314Z,0.80
2019-01-09T04:45:35.691Z,0.80
2019-01-09T04:48:05.190Z,0.80
2019-01-09T04:50:34.588Z,0.80
2019-01-09T04:53:03.718Z,0.80
2019-01-09T04:55:33.439Z,0.80
2019-01-09T04:58:03.382Z,0.80
2019-01-09T05:00:32.734Z,0.80
2019-01-09T05:03:01.990Z,0.80
2019-01-09T05:05:31.363Z,0.80
2019-01-09T05:08:00.940Z,0.80
2019-01-09T05:10:30.732Z,0.80
2019-01-09T05:13:00.509Z,0.80
2019-01-09T05:15:29.942Z,0.90
2019-01-09T05:17:59.352Z,0.90
2019-01-09T05:20:28.451Z,0.90
2019-01-09T05:22:58.116Z,0.90
2019-01-09T05:25:27.231Z,0.90
2019-01-09T05:27:56.359Z,0.90
2019-01-09T05:30:26.010Z,0.80
2019-01-09T05:32:55.755Z,0.80
2019-01-09T05:35:25.532Z,0.80
2019-01-09T05:37:55.250Z,0.70
2019-01-09T05:40:24.875Z,0.70
2019-01-09T05:42:54.874Z,0.70
2019-01-09T05:45:24.270Z,0.70
2019-01-09T05:47:53.439Z,0.70
2019-01-09T05:50:22.835Z,0.70
2019-01-09T05:52:52.226Z,0.80
2019-01-09T05:55:21.587Z,0.70
2019-01-09T05:57:50.983Z,0.80
2019-01-09T06:00:20.601Z,0.80
2019-01-09T06:02:49.838Z,0.80
2019-01-09T06:05:19.226Z,0.90
2019-01-09T06:07:48.364Z,0.80
2019-01-09T06:10:17.998Z,0.80
2019-01-09T06:12:47.395Z,0.80
2019-01-09T06:15:16.762Z,0.80
2019-01-09T06:17:46.164Z,0.80
2019-01-09T06:20:15.670Z,0.70
2019-01-09T06:22:45.402Z,0.50
2019-01-09T06:25:15.117Z,0.40
2019-01-09T06:27:44.339Z,0.40
2019-01-09T06:30:14.243Z,0.30
2019-01-09T06:32:43.379Z,0.20
2019-01-09T06:35:12.480Z,0.20
2019-01-09T06:37:42.152Z,0.20
2019-01-09T06:40:11.318Z,0.10
2019-01-09T06:42:40.734Z,0.10
2019-01-09T06:45:10.371Z,0.10
2019-01-09T06:47:39.558Z,0.10
2019-01-09T06:50:13.042Z,0.10
2019-01-09T06:52:42.471Z,0.10
2019-01-09T06:55:11.579Z,0.10
2019-01-09T06:57:41.290Z,0.10
2019-01-09T07:00:11.695Z,0.10
2019-01-09T07:02:40.867Z,0.10
2019-01-09T07:05:10.269Z,0.00
2019-01-09T07:07:39.643Z,0.00
2019-01-09T07:10:09.118Z,-0.10
2019-01-09T07:12:38.483Z,-0.10
2019-01-09T07:15:12.514Z,-0.20
2019-01-09T07:17:39.256Z,-0.20
2019-01-09T07:20:08.919Z,-0.20
2019-01-09T07:22:38.119Z,-0.20
2019-01-09T07:25:07.280Z,-0.20
2019-01-09T07:27:36.651Z,-0.20
2019-01-09T07:30:06.662Z,-0.20
2019-01-09T07:32:36.026Z,-0.10
2019-01-09T07:35:05.841Z,-0.10
2019-01-09T07:37:35.214Z,-0.10
2019-01-09T07:40:04.728Z,-0.10
2019-01-09T07:42:34.086Z,-0.10
2019-01-09T07:45:03.306Z,-0.10
2019-01-09T07:47:32.452Z,0.00
2019-01-09T07:50:01.604Z,0.00
2019-01-09T07:52:30.978Z,0.00
2019-01-09T07:55:00.374Z,0.00
2019-01-09T07:57:30.048Z,0.00
2019-01-09T07:59:59.187Z,0.00
2019-01-09T08:02:28.556Z,0.10
2019-01-09T08:04:57.959Z,0.10
2019-01-09T08:07:27.591Z,0.10
2019-01-09T08:09:57.002Z,0.10
2019-01-09T08:12:26.372Z,0.10
2019-01-09T08:14:55.775Z,0.20
2019-01-09T08:17:24.953Z,0.20
2019-01-09T08:19:54.348Z,0.20
2019-01-09T08:22:23.450Z,0.20
2019-01-09T08:24:53.474Z,0.30
2019-01-09T08:27:22.640Z,0.30
2019-01-09T08:29:52.032Z,0.30
2019-01-09T08:32:21.163Z,0.30
2019-01-09T08:34:50.827Z,0.30
2019-01-09T08:37:20.196Z,0.30
2019-01-09T08:39:49.338Z,0.30
2019-01-09T08:42:18.438Z,0.30
2019-01-09T08:44:47.830Z,0.30
2019-01-09T08:47:17.203Z,0.30
2019-01-09T08:49:46.594Z,0.20
2019-01-09T08:52:15.694Z,0.20
2019-01-09T08:54:45.352Z,0.10
2019-01-09T08:57:14.781Z,0.10
2019-01-09T08:59:43.911Z,0.00
2019-01-09T09:02:13.275Z,0.00
2019-01-09T09:04:42.418Z,0.00
2019-01-09T09:07:11.523Z,0.00
2019-01-09T09:09:41.324Z,0.00
2019-01-09T09:12:10.500Z,0.00
2019-01-09T09:14:39.635Z,0.00
2019-01-09T09:17:08.742Z,0.00
2019-01-09T09:19:37.886Z,0.00
2019-01-09T09:22:06.994Z,0.00
2019-01-09T09:24:36.970Z,0.00
2019-01-09T09:27:06.063Z,0.00
2019-01-09T09:29:35.736Z,0.00
2019-01-09T09:32:05.110Z,0.00
2019-01-09T09:34:34.783Z,0.10
2019-01-09T09:37:03.887Z,0.10
2019-01-09T09:39:33.563Z,0.10
2019-01-09T09:42:02.927Z,0.10
2019-01-09T09:44:32.323Z,0.10
2019-01-09T09:47:02.262Z,0.20
2019-01-09T09:49:31.668Z,0.20
2019-01-09T09:52:01.588Z,0.30
2019-01-09T09:54:30.730Z,0.20
2019-01-09T09:57:00.106Z,0.20
2019-01-09T09:59:29.499Z,0.30
2019-01-09T10:01:58.871Z,0.30
2019-01-09T10:04:28.295Z,0.30
2019-01-09T10:06:57.654Z,0.30
2019-01-09T10:09:27.108Z,0.40
2019-01-09T10:11:56.279Z,0.40
2019-01-09T10:14:25.948Z,0.40
2019-01-09T10:16:55.043Z,0.50
2019-01-09T10:19:24.487Z,0.40
2019-01-09T10:21:53.782Z,0.50
2019-01-09T10:24:22.944Z,0.50
2019-01-09T10:26:54.112Z,0.60
2019-01-09T10:29:23.232Z,0.60
2019-01-09T10:31:52.806Z,0.60
2019-01-09T10:34:22.233Z,0.60
2019-01-09T10:36:51.873Z,0.60
2019-01-09T10:39:21.339Z,0.50
2019-01-09T10:41:50.771Z,0.50
2019-01-09T10:44:20.135Z,0.40
2019-01-09T10:46:49.803Z,0.40
2019-01-09T10:49:18.899Z,0.40
2019-01-09T10:51:48.332Z,0.40
2019-01-09T10:54:17.706Z,0.40
2019-01-09T10:56:47.402Z,0.40
2019-01-09T10:59:16.764Z,0.40
2019-01-09T11:01:46.435Z,0.40
2019-01-09T11:04:15.543Z,0.40
2019-01-09T11:06:45.015Z,0.40
2019-01-09T11:09:14.644Z,0.40
2019-01-09T11:11:43.772Z,0.50
2019-01-09T11:14:13.408Z,0.50
2019-01-09T11:16:42.807Z,0.50
2019-01-09T11:19:11.918Z,0.50
2019-01-09T11:21:41.071Z,0.50
2019-01-09T11:24:10.227Z,0.50
2019-01-09T11:26:39.693Z,0.50
2019-01-09T11:29:09.330Z,0.60
2019-01-09T11:31:39.031Z,0.60
2019-01-09T11:34:08.395Z,0.60
2019-01-09T11:36:37.526Z,0.60
2019-01-09T11:39:09.592Z,0.50
2019-01-09T11:41:38.731Z,0.40
2019-01-09T11:44:08.124Z,0.30
2019-01-09T11:46:37.307Z,0.20
2019-01-09T11:49:06.718Z,0.10
2019-01-09T11:51:36.227Z,0.00
2019-01-09T11:54:05.644Z,0.00
2019-01-09T11:56:34.776Z,0.00
2019-01-09T11:59:04.143Z,0.10
2019-01-09T12:01:33.275Z,0.10
2019-01-09T12:04:02.639Z,0.10
2019-01-09T12:06:31.778Z,0.20
2019-01-09T12:09:04.640Z,0.20
2019-01-09T12:11:31.995Z,0.20
2019-01-09T12:14:01.094Z,0.30
2019-01-09T12:16:30.299Z,0.30
2019-01-09T12:18:59.667Z,0.40
2019-01-09T12:21:29.060Z,0.40
2019-01-09T12:23:58.442Z,0.40
2019-01-09T12:26:27.886Z,0.50
2019-01-09T12:28:56.987Z,0.50
2019-01-09T12:31:26.122Z,0.60
2019-01-09T12:33:55.492Z,0.70
2019-01-09T12:36:24.904Z,0.80
2019-01-09T12:38:54.531Z,0.80
2019-01-09T12:41:23.923Z,0.80
2019-01-09T12:43:53.279Z,0.80
2019-01-09T12:46:22.678Z,0.80
2019-01-09T12:48:52.050Z,0.80
2019-01-09T12:51:21.523Z,0.80
2019-01-09T12:53:50.627Z,0.90
2019-01-09T12:56:20.290Z,0.90
2019-01-09T12:58:49.925Z,0.90
2019-01-09T13:01:19.591Z,0.80
2019-01-09T13:03:48.957Z,0.80
2019-01-09T13:06:18.090Z,0.70
2019-01-09T13:08:47.196Z,0.70
2019-01-09T13:11:16.888Z,0.60
2019-01-09T13:13:46.264Z,0.60
2019-01-09T13:16:15.634Z,0.60
2019-01-09T13:18:45.578Z,0.60
2019-01-09T13:21:14.983Z,0.60
2019-01-09T13:23:44.378Z,0.60
2019-01-09T13:26:13.551Z,0.50
2019-01-09T13:28:42.955Z,0.50
2019-01-09T13:31:12.399Z,0.50
2019-01-09T13:33:41.795Z,0.60
2019-01-09T13:36:11.502Z,0.60
2019-01-09T13:38:41.165Z,0.60
2019-01-09T13:41:10.602Z,0.60
2019-01-09T13:43:39.814Z,0.60
2019-01-09T13:46:09.487Z,0.60
2019-01-09T13:48:38.884Z,0.60
2019-01-09T13:51:09.549Z,0.60
2019-01-09T13:53:39.470Z,0.60
2019-01-09T13:56:09.099Z,0.50
2019-01-09T13:58:38.764Z,0.40
2019-01-09T14:01:08.127Z,0.30
2019-01-09T14:03:37.518Z,0.20
2019-01-09T14:06:06.691Z,0.10
2019-01-09T14:08:35.827Z,0.10
2019-01-09T14:11:05.210Z,0.00
2019-01-09T14:13:34.620Z,0.00
2019-01-09T14:16:03.986Z,0.00
2019-01-09T14:18:33.139Z,-0.10
2019-01-09T14:21:02.850Z,-0.20
2019-01-09T14:23:32.251Z,-0.20
2019-01-09T14:26:01.356Z,-0.30
2019-01-09T14:28:30.782Z,-0.40
2019-01-09T14:31:00.425Z,-0.50
2019-01-09T14:33:29.739Z,-0.60
2019-01-09T14:35:58.953Z,-0.60
2019-01-09T14:38:28.414Z,-0.50
2019-01-09T14:40:58.045Z,-0.50
2019-01-09T14:43:27.454Z,-0.50
2019-01-09T14:45:56.564Z,-0.40
2019-01-09T14:48:25.981Z,-0.40
2019-01-09T14:50:55.607Z,-0.30
2019-01-09T14:53:25.002Z,-0.30
2019-01-09T14:55:54.710Z,-0.30
2019-01-09T14:58:24.123Z,-0.20
2019-01-09T15:00:53.558Z,-0.30
2019-01-09T15:03:23.294Z,-0.30
2019-01-09T15:05:52.443Z,-0.30
2019-01-09T15:08:21.623Z,-0.30
2019-01-09T15:10:51.255Z,-0.20
2019-01-09T15:13:21.460Z,-0.20
2019-01-09T15:15:50.659Z,-0.30
2019-01-09T15:18:19.790Z,-0.30
2019-01-09T15:20:49.487Z,-0.30
2019-01-09T15:23:18.701Z,-0.40
2019-01-09T15:25:49.151Z,-0.30
2019-01-09T15:28:18.303Z,-0.40
2019-01-09T15:30:47.398Z,-0.40
2019-01-09T15:33:17.063Z,-0.30
2019-01-09T15:35:46.177Z,-0.30
2019-01-09T15:38:15.643Z,-0.30
2019-01-09T15:40:45.015Z,-0.30
2019-01-09T15:43:14.243Z,-0.30
2019-01-09T15:45:43.610Z,-0.40
2019-01-09T15:48:13.027Z,-0.60
2019-01-09T15:50:42.399Z,-0.70
2019-01-09T15:53:12.382Z,-0.80
2019-01-09T15:55:41.751Z,-0.90
2019-01-09T15:58:11.015Z,-0.90
2019-01-09T16:00:42.631Z,-0.90
2019-01-09T16:03:12.034Z,-0.90
2019-01-09T16:05:41.138Z,-0.90
2019-01-09T16:08:10.938Z,-0.90
2019-01-09T16:10:40.423Z,-0.90
2019-01-09T16:13:09.644Z,-0.90
2019-01-09T16:15:38.750Z,-0.90
2019-01-09T16:18:08.807Z,-0.80
2019-01-09T16:20:37.899Z,-0.80
2019-01-09T16:23:07.064Z,-0.70
2019-01-09T16:25:36.851Z,-0.70
2019-01-09T16:28:06.379Z,-0.70
2019-01-09T16:30:49.570Z,-0.60
2019-01-09T16:33:18.998Z,-0.60
2019-01-09T16:35:48.356Z,-0.60
2019-01-09T16:38:17.794Z,-0.60
2019-01-09T16:40:47.743Z,-0.70
2019-01-09T16:43:16.851Z,-0.70
2019-01-09T16:45:46.283Z,-0.70
2019-01-09T16:48:15.917Z,-0.80
2019-01-09T16:50:45.088Z,-0.80
2019-01-09T16:53:14.203Z,-0.80
2019-01-09T16:55:43.455Z,-0.90
2019-01-09T16:58:12.630Z,-0.90
2019-01-09T17:00:42.126Z,-0.90
2019-01-09T17:03:11.571Z,-0.90
2019-01-09T17:05:41.070Z,-0.90
2019-01-09T17:08:11.573Z,-0.90
2019-01-09T17:10:40.887Z,-0.90
2019-01-09T17:13:10.343Z,-0.90
2019-01-09T17:15:39.871Z,-0.90
2019-01-09T17:18:09.323Z,-0.90
2019-01-09T17:20:38.642Z,-0.90
2019-01-09T17:23:08.002Z,-0.90
2019-01-09T17:25:37.528Z,-0.90
2019-01-09T17:28:07.153Z,-1.00
2019-01-09T17:30:36.664Z,-1.00
2019-01-09T17:33:07.292Z,-1.00
2019-01-09T17:35:36.946Z,-1.00
2019-01-09T17:38:06.130Z,-1.00
2019-01-09T17:40:40.886Z,-1.00
2019-01-09T17:43:06.757Z,-1.00
2019-01-09T17:45:36.536Z,-1.00
2019-01-09T17:48:06.438Z,-1.00
2019-01-09T17:50:36.871Z,-1.00
2019-01-09T17:53:06.398Z,-1.00
2019-01-09T17:55:35.922Z,-1.00
2019-01-09T17:58:05.719Z,-1.00
2019-01-09T18:00:37.365Z,-1.00
2019-01-09T18:03:06.471Z,-1.10
2019-01-09T18:05:35.767Z,-1.10
2019-01-09T18:08:10.413Z,-1.10
2019-01-09T18:10:36.651Z,-1.10
2019-01-09T18:13:06.032Z,-1.10
2019-01-09T18:15:35.546Z,-1.10
2019-01-09T18:18:05.275Z,-1.10
2019-01-09T18:20:34.711Z,-1.10
2019-01-09T18:23:03.892Z,-1.10
2019-01-09T18:25:33.934Z,-1.10
2019-01-09T18:28:03.315Z,-1.10
2019-01-09T18:30:45.111Z,-1.10
2019-01-09T18:33:18.431Z,-1.10
2019-01-09T18:36:24.871Z,-1.10
2019-01-09T18:39:44.983Z,-1.10
2019-01-09T18:42:31.643Z,-1.10
2019-01-09T18:45:33.543Z,-1.10
2019-01-09T18:48:44.783Z,-1.10
2019-01-09T18:51:28.341Z,-1.10
2019-01-09T18:53:58.042Z,-1.10
2019-01-09T18:56:27.687Z,-1.20
2019-01-09T18:58:57.160Z,-1.20
2019-01-09T19:01:27.167Z,-1.20
2019-01-09T19:03:56.619Z,-1.10
2019-01-09T19:06:34.822Z,-1.10
2019-01-09T19:08:57.871Z,-1.10
2019-01-09T19:11:27.082Z,-1.10
2019-01-09T19:13:56.798Z,-1.10
2019-01-09T19:16:26.347Z,-1.10
2019-01-09T19:18:55.711Z,-1.10
2019-01-09T19:21:24.911Z,-1.10
2019-01-09T19:23:54.423Z,-1.10
2019-01-09T19:26:24.042Z,-1.10
2019-01-09T19:28:53.579Z,-1.10
2019-01-09T19:31:23.156Z,-1.10
2019-01-09T19:33:52.339Z,-1.10
2019-01-09T19:36:22.066Z,-1.10
2019-01-09T19:38:51.853Z,-1.10
2019-01-09T19:41:21.131Z,-1.20
2019-01-09T19:43:50.312Z,-1.20
2019-01-09T19:46:19.794Z,-1.20
2019-01-09T19:48:48.926Z,-1.20
2019-01-09T19:51:18.703Z,-1.20
2019-01-09T19:53:48.127Z,-1.20
2019-01-09T19:56:17.327Z,-1.20
2019-01-09T19:58:47.307Z,-1.20
2019-01-09T20:01:17.023Z,-1.20
2019-01-09T20:03:46.923Z,-1.20
2019-01-09T20:06:17.299Z,-1.20
2019-01-09T20:08:46.953Z,-1.20
2019-01-09T20:11:16.226Z,-1.20
2019-01-09T20:13:45.992Z,-1.20
2019-01-09T20:16:15.472Z,-1.20
2019-01-09T20:18:44.627Z,-1.20
2019-01-09T20:21:14.161Z,-1.20
2019-01-09T20:23:43.526Z,-1.20
2019-01-09T20:26:13.015Z,-1.20
2019-01-09T20:28:42.217Z,-1.30
2019-01-09T20:31:11.672Z,-1.20
2019-01-09T20:33:40.810Z,-1.20
2019-01-09T20:36:10.628Z,-1.20
2019-01-09T20:38:40.141Z,-1.20
2019-01-09T20:41:11.127Z,-1.30
2019-01-09T20:43:40.564Z,-1.30
2019-01-09T20:46:10.169Z,-1.30
2019-01-09T20:48:39.310Z,-1.30
2019-01-09T20:51:09.062Z,-1.30
2019-01-09T20:53:38.288Z,-1.30
2019-01-09T20:56:07.705Z,-1.30
2019-01-09T20:58:36.832Z,-1.30
2019-01-09T21:01:06.363Z,-1.30
2019-01-09T21:03:35.559Z,-1.30
2019-01-09T21:06:04.991Z,-1.30
2019-01-09T21:08:34.421Z,-1.30
2019-01-09T21:11:03.907Z,-1.30
2019-01-09T21:13:33.435Z,-1.30
2019-01-09T21:16:02.870Z,-1.30
2019-01-09T21:18:32.343Z,-1.30
2019-01-09T21:21:01.794Z,-1.30
2019-01-09T21:23:30.952Z,-1.30
2019-01-09T21:26:00.682Z,-1.20
2019-01-09T21:28:29.913Z,-1.20
2019-01-09T21:30:59.275Z,-1.20
2019-01-09T21:33:28.953Z,-1.20
2019-01-09T21:35:58.331Z,-1.20
2019-01-09T21:38:27.731Z,-1.20
2019-01-09T21:40:57.095Z,-1.20
2019-01-09T21:43:26.235Z,-1.20
2019-01-09T21:45:55.606Z,-1.20
2019-01-09T21:48:24.754Z,-1.20
2019-01-09T21:50:53.967Z,-1.20
2019-01-09T21:53:23.359Z,-1.10
2019-01-09T21:55:52.762Z,-1.10
2019-01-09T21:58:21.939Z,-1.10
2019-01-09T22:00:51.084Z,-1.10
2019-01-09T22:03:20.303Z,-1.10
2019-01-09T22:05:49.708Z,-1.10
2019-01-09T22:08:19.071Z,-1.10
2019-01-09T22:10:48.547Z,-1.10
2019-01-09T22:13:18.191Z,-1.10
2019-01-09T22:15:47.598Z,-1.10
2019-01-09T22:18:17.039Z,-1.10
2019-01-09T22:20:46.515Z,-1.10
2019-01-09T22:23:15.636Z,-1.10
2019-01-09T22:25:44.774Z,-1.10
2019-01-09T22:28:13.884Z,-1.20
2019-01-09T22:30:43.459Z,-1.10
2019-01-09T22:33:13.100Z,-1.20
2019-01-09T22:35:42.506Z,-1.20
2019-01-09T22:38:11.622Z,-1.20
2019-01-09T22:40:40.735Z,-1.20
2019-01-09T22:43:10.407Z,-1.30
2019-01-09T22:45:39.794Z,-1.30
2019-01-09T22:48:09.207Z,-1.30
2019-01-09T22:50:38.322Z,-1.40
2019-01-09T22:53:07.467Z,-1.40
2019-01-09T22:55:36.912Z,-1.40
2019-01-09T22:58:06.057Z,-1.40
2019-01-09T23:01:22.643Z,-1.40
2019-01-09T23:03:53.147Z,-1.40
2019-01-09T23:06:22.730Z,-1.40
2019-01-09T23:08:52.763Z,-1.50
2019-01-09T23:11:22.623Z,-1.50
2019-01-09T23:13:52.072Z,-1.50
2019-01-09T23:16:21.224Z,-1.50
2019-01-09T23:18:50.918Z,-1.50
2019-01-09T23:21:20.086Z,-1.50
2019-01-09T23:23:50.256Z,-1.50
2019-01-09T23:26:19.884Z,-1.60
2019-01-09T23:28:49.304Z,-1.60
2019-01-09T23:31:18.406Z,-1.60
2019-01-09T23:33:47.901Z,-1.60
2019-01-09T23:36:17.099Z,-1.60
2019-01-09T23:38:46.766Z,-1.60
2019-01-09T23:41:16.158Z,-1.60
2019-01-09T23:43:45.286Z,-1.60
2019-01-09T23:46:14.995Z,-1.60
2019-01-09T23:48:44.155Z,-1.60
2019-01-09T23:51:13.282Z,-1.60
2019-01-09T23:53:42.692Z,-1.60
2019-01-09T23:56:12.196Z,-1.70
2019-01-09T23:58:41.868Z,-1.70
